createdAt,value
2019-05-21T00:00:47.011Z,25.43
2019-05-21T00:03:15.482Z,31.10
2019-05-21T00:05:44.459Z,26.40
2019-05-21T00:08:12.971Z,28.77
2019-05-21T00:10:41.517Z,25.80
2019-05-21T00:13:10.455Z,28.03
2019-05-21T00:15:39.027Z,27.67
2019-05-21T00:18:07.491Z,24.07
2019-05-21T00:20:35.958Z,28.63
2019-05-21T00:23:04.529Z,26.93
2019-05-21T00:25:33.016Z,29.43
2019-05-21T00:28:30.336Z,25.87
2019-05-21T00:31:34.705Z,24.77
2019-05-21T00:34:44.306Z,27.27
2019-05-21T00:37:48.317Z,35.10
2019-05-21T00:40:54.181Z,31.60
2019-05-21T00:43:34.453Z,33.43
2019-05-21T00:46:03.107Z,37.47
2019-05-21T00:48:31.667Z,38.87
2019-05-21T00:51:00.477Z,39.20
2019-05-21T00:53:29.068Z,36.33
2019-05-21T00:55:57.546Z,35.87
2019-05-21T00:58:26.019Z,34.57
2019-05-21T01:00:54.543Z,40.57
2019-05-21T01:03:23.479Z,40.00
2019-05-21T01:05:52.019Z,40.33
2019-05-21T01:08:20.672Z,41.53
2019-05-21T01:10:49.207Z,39.27
2019-05-21T01:13:17.679Z,35.20
2019-05-21T01:15:46.182Z,35.93
2019-05-21T01:18:15.731Z,37.43
2019-05-21T01:20:45.509Z,39.90
2019-05-21T01:23:15.504Z,43.73
2019-05-21T01:25:43.970Z,36.83
2019-05-21T01:28:12.877Z,42.13
2019-05-21T01:30:41.404Z,33.30
2019-05-21T01:33:10.155Z,45.30
2019-05-21T01:35:38.687Z,37.73
2019-05-21T01:38:07.316Z,41.43
2019-05-21T01:40:35.957Z,46.13
2019-05-21T01:43:05.062Z,42.60
2019-05-21T01:45:33.651Z,40.73
2019-05-21T01:48:02.837Z,45.63
2019-05-21T01:50:31.313Z,44.23
2019-05-21T01:53:00.149Z,51.37
2019-05-21T01:55:28.644Z,52.97
2019-05-21T01:57:57.140Z,51.20
2019-05-21T02:00:25.741Z,49.07
2019-05-21T02:02:54.753Z,52.00
2019-05-21T02:05:32.537Z,46.97
2019-05-21T02:07:53.627Z,58.27
2019-05-21T02:10:22.185Z,47.63
2019-05-21T02:12:50.731Z,54.13
2019-05-21T02:15:19.329Z,51.33
2019-05-21T02:17:47.943Z,53.07
2019-05-21T02:20:16.937Z,61.17
2019-05-21T02:22:45.471Z,56.90
2019-05-21T02:25:14.588Z,58.77
2019-05-21T02:27:43.043Z,55.07
2019-05-21T02:30:12.490Z,60.23
2019-05-21T02:32:40.968Z,62.40
2019-05-21T02:35:10.140Z,62.90
2019-05-21T02:37:38.657Z,66.07
2019-05-21T02:40:08.327Z,61.47
2019-05-21T02:42:36.941Z,59.93
2019-05-21T02:45:07.402Z,67.47
2019-05-21T02:47:36.029Z,55.83
2019-05-21T02:50:06.118Z,62.07
2019-05-21T02:52:34.779Z,70.47
2019-05-21T02:55:06.687Z,72.23
2019-05-21T02:57:43.916Z,66.10
2019-05-21T03:00:38.240Z,67.37
2019-05-21T03:03:08.883Z,64.03
2019-05-21T03:05:37.428Z,73.87
2019-05-21T03:08:05.982Z,71.83
2019-05-21T03:10:34.603Z,69.93
2019-05-21T03:13:03.130Z,73.97
2019-05-21T03:15:31.676Z,74.57
2019-05-21T03:18:00.458Z,83.23
2019-05-21T03:20:28.997Z,86.70
2019-05-21T03:22:57.735Z,87.40
2019-05-21T03:25:26.235Z,86.27
2019-05-21T03:27:54.779Z,90.63
2019-05-21T03:30:23.411Z,94.07
2019-05-21T03:32:52.121Z,82.17
2019-05-21T03:35:20.724Z,88.80
2019-05-21T03:37:49.198Z,90.50
2019-05-21T03:40:17.921Z,97.43
2019-05-21T03:42:46.402Z,89.20
2019-05-21T03:45:15.116Z,99.20
2019-05-21T03:47:43.773Z,91.23
2019-05-21T03:50:12.575Z,89.00
2019-05-21T03:52:41.327Z,89.80
2019-05-21T03:55:10.407Z,89.70
2019-05-21T03:57:38.961Z,86.93
2019-05-21T04:00:10.796Z,91.30
2019-05-21T04:02:39.539Z,90.30
2019-05-21T04:05:09.220Z,79.03
2019-05-21T04:07:37.831Z,80.63
2019-05-21T04:10:17.633Z,86.90
2019-05-21T04:12:47.844Z,83.43
2019-05-21T04:15:18.184Z,89.97
2019-05-21T04:18:00.630Z,93.27
2019-05-21T04:20:29.241Z,88.97
2019-05-21T04:22:58.168Z,86.00
2019-05-21T04:25:26.733Z,76.43
2019-05-21T04:27:55.190Z,69.60
2019-05-21T04:30:23.804Z,65.03
2019-05-21T04:32:52.403Z,57.60
2019-05-21T04:35:20.866Z,51.07
2019-05-21T04:37:49.359Z,59.60
2019-05-21T04:40:18.113Z,45.13
2019-05-21T04:42:46.632Z,40.77
2019-05-21T04:45:15.305Z,37.30
2019-05-21T04:47:43.968Z,40.27
2019-05-21T04:50:12.980Z,49.30
2019-05-21T04:52:41.443Z,47.37
2019-05-21T04:55:10.329Z,45.40
2019-05-21T04:57:39.469Z,44.73
2019-05-21T05:00:08.611Z,50.40
2019-05-21T05:02:37.524Z,44.30
2019-05-21T05:05:07.594Z,45.10
2019-05-21T05:07:36.331Z,39.07
2019-05-21T05:10:07.410Z,36.00
2019-05-21T05:12:35.941Z,36.53
2019-05-21T05:15:06.354Z,33.40
2019-05-21T05:17:34.923Z,30.40
2019-05-21T05:20:04.278Z,22.23
2019-05-21T05:22:32.898Z,27.93
2019-05-21T05:25:01.602Z,23.83
2019-05-21T05:27:30.246Z,20.30
2019-05-21T05:29:59.271Z,21.37
2019-05-21T05:32:27.876Z,28.17
2019-05-21T05:34:56.639Z,18.03
2019-05-21T05:37:25.205Z,17.70
2019-05-21T05:39:53.704Z,17.87
2019-05-21T05:42:22.187Z,19.07
2019-05-21T05:44:50.794Z,19.50
2019-05-21T05:47:19.379Z,24.57
2019-05-21T05:49:49.495Z,16.23
2019-05-21T05:52:18.132Z,18.33
2019-05-21T05:54:46.671Z,16.60
2019-05-21T05:57:15.141Z,16.17
2019-05-21T05:59:43.748Z,17.67
2019-05-21T06:02:12.612Z,14.40
2019-05-21T06:04:41.167Z,13.17
2019-05-21T06:07:10.047Z,12.50
2019-05-21T06:09:38.632Z,14.97
2019-05-21T06:12:07.098Z,13.63
2019-05-21T06:14:35.565Z,12.87
2019-05-21T06:17:06.542Z,10.83
2019-05-21T06:19:35.003Z,13.23
2019-05-21T06:22:03.555Z,11.97
2019-05-21T06:24:32.130Z,14.63
2019-05-21T06:27:00.604Z,13.60
2019-05-21T06:29:29.141Z,10.50
2019-05-21T06:31:57.715Z,13.03
2019-05-21T06:34:26.348Z,11.20
2019-05-21T06:36:54.831Z,10.10
2019-05-21T06:39:23.474Z,17.97
2019-05-21T06:41:51.939Z,10.40
2019-05-21T06:44:20.560Z,8.57
2019-05-21T06:46:49.190Z,13.87
2019-05-21T06:49:17.713Z,12.67
2019-05-21T06:51:46.262Z,9.30
2019-05-21T06:54:14.899Z,11.27
2019-05-21T06:56:43.369Z,10.33
2019-05-21T06:59:11.902Z,8.87
2019-05-21T07:01:40.461Z,9.90
2019-05-21T07:04:09.003Z,12.67
2019-05-21T07:06:37.539Z,8.17
2019-05-21T07:09:06.784Z,13.57
2019-05-21T07:11:35.416Z,14.30
2019-05-21T07:14:04.119Z,12.30
2019-05-21T07:16:32.626Z,12.50
2019-05-21T07:19:01.313Z,13.00
2019-05-21T07:21:29.942Z,11.10
2019-05-21T07:23:58.566Z,10.27
2019-05-21T07:26:27.112Z,7.30
2019-05-21T07:28:56.443Z,9.83
2019-05-21T07:31:26.683Z,5.50
2019-05-21T07:33:55.234Z,8.87
2019-05-21T07:36:23.705Z,8.63
2019-05-21T07:38:54.113Z,8.63
2019-05-21T07:41:22.471Z,7.20
2019-05-21T07:43:50.993Z,10.60
2019-05-21T07:46:19.490Z,9.23
2019-05-21T07:48:48.092Z,12.17
2019-05-21T07:51:16.579Z,9.73
2019-05-21T07:53:45.066Z,13.20
2019-05-21T07:56:13.659Z,7.30
2019-05-21T07:58:42.191Z,9.27
2019-05-21T08:01:10.852Z,9.33
2019-05-21T08:03:40.011Z,10.27
2019-05-21T08:06:08.579Z,8.83
2019-05-21T08:08:37.107Z,7.03
2019-05-21T08:11:06.005Z,8.57
2019-05-21T08:13:34.676Z,9.47
2019-05-21T08:16:03.189Z,6.20
2019-05-21T08:18:31.714Z,9.57
2019-05-21T08:21:00.427Z,5.40
2019-05-21T08:23:29.024Z,7.70
2019-05-21T08:25:57.550Z,10.43
2019-05-21T08:28:26.279Z,6.60
2019-05-21T08:30:54.891Z,9.60
2019-05-21T08:33:23.383Z,6.57
2019-05-21T08:35:52.446Z,8.10
2019-05-21T08:38:20.965Z,11.17
2019-05-21T08:40:49.505Z,7.53
2019-05-21T08:43:18.030Z,8.07
2019-05-21T08:45:46.566Z,6.90
2019-05-21T08:48:15.022Z,5.90
2019-05-21T08:50:43.499Z,11.90
2019-05-21T08:53:12.192Z,8.03
2019-05-21T08:55:40.661Z,10.23
2019-05-21T08:58:09.226Z,12.43
2019-05-21T09:00:38.015Z,9.53
2019-05-21T09:03:06.551Z,6.97
2019-05-21T09:05:35.077Z,6.97
2019-05-21T09:08:03.640Z,8.50
2019-05-21T09:10:32.146Z,8.60
2019-05-21T09:13:00.728Z,6.50
2019-05-21T09:15:29.319Z,8.40
2019-05-21T09:17:57.840Z,9.20
2019-05-21T09:20:26.436Z,6.50
2019-05-21T09:22:54.946Z,5.43
2019-05-21T09:25:23.563Z,3.97
2019-05-21T09:27:52.091Z,5.67
2019-05-21T09:30:21.547Z,4.83
2019-05-21T09:32:50.181Z,6.70
2019-05-21T09:35:18.848Z,7.07
2019-05-21T09:37:47.401Z,10.87
2019-05-21T09:40:18.835Z,5.53
2019-05-21T09:42:47.670Z,20.63
2019-05-21T09:45:16.911Z,11.67
2019-05-21T09:47:45.523Z,12.03
2019-05-21T09:50:15.038Z,9.03
2019-05-21T09:52:43.600Z,10.63
2019-05-21T09:55:13.313Z,9.27
2019-05-21T09:57:46.497Z,9.10
2019-05-21T10:00:36.304Z,11.97
2019-05-21T10:03:06.745Z,10.40
2019-05-21T10:05:35.221Z,12.37
2019-05-21T10:08:04.531Z,17.83
2019-05-21T10:10:33.070Z,10.37
2019-05-21T10:13:01.689Z,11.53
2019-05-21T10:15:30.277Z,12.83
2019-05-21T10:17:58.761Z,16.37
2019-05-21T10:20:27.341Z,13.03
2019-05-21T10:22:55.927Z,18.20
2019-05-21T10:25:24.457Z,13.37
2019-05-21T10:27:52.922Z,14.63
2019-05-21T10:30:21.572Z,16.77
2019-05-21T10:32:50.118Z,18.37
2019-05-21T10:35:18.653Z,19.03
2019-05-21T10:37:54.812Z,14.50
2019-05-21T10:40:17.862Z,18.50
2019-05-21T10:42:46.400Z,14.63
2019-05-21T10:45:15.351Z,18.33
2019-05-21T10:47:43.908Z,15.87
2019-05-21T10:50:13.476Z,17.47
2019-05-21T10:52:42.033Z,19.13
2019-05-21T10:55:15.811Z,15.40
2019-05-21T10:57:42.736Z,15.77
2019-05-21T11:00:23.029Z,18.97
2019-05-21T11:02:52.524Z,17.67
2019-05-21T11:05:28.794Z,20.33
2019-05-21T11:07:56.094Z,16.17
2019-05-21T11:10:24.710Z,13.20
2019-05-21T11:12:53.273Z,16.63
2019-05-21T11:15:21.873Z,11.63
2019-05-21T11:18:09.065Z,13.90
2019-05-21T11:20:20.810Z,15.00
2019-05-21T11:22:49.276Z,19.33
2019-05-21T11:25:17.866Z,12.70
2019-05-21T11:27:46.452Z,14.80
2019-05-21T11:30:16.219Z,18.53
2019-05-21T11:32:47.830Z,17.70
2019-05-21T11:35:16.441Z,20.80
2019-05-21T11:37:47.831Z,16.50
2019-05-21T11:40:16.660Z,18.63
2019-05-21T11:42:45.172Z,16.73
2019-05-21T11:45:31.179Z,17.63
2019-05-21T11:47:45.544Z,24.07
2019-05-21T11:50:16.793Z,13.37
2019-05-21T11:52:45.705Z,14.10
2019-05-21T11:55:14.391Z,19.07
2019-05-21T11:57:42.988Z,21.23
2019-05-21T12:00:14.337Z,16.30
2019-05-21T12:02:42.872Z,18.97
2019-05-21T12:05:11.710Z,19.37
2019-05-21T12:07:40.243Z,16.33
2019-05-21T12:10:09.630Z,17.77
2019-05-21T12:12:38.214Z,18.03
2019-05-21T12:15:08.497Z,15.57
2019-05-21T12:17:37.100Z,16.53
2019-05-21T12:20:08.619Z,16.87
2019-05-21T12:22:37.233Z,21.87
2019-05-21T12:25:08.644Z,19.83
2019-05-21T12:27:37.217Z,19.73
2019-05-21T12:30:09.652Z,26.77
2019-05-21T12:32:44.198Z,27.03
2019-05-21T12:35:13.120Z,22.47
2019-05-21T12:37:41.742Z,31.50
2019-05-21T12:40:12.259Z,27.23
2019-05-21T12:42:40.900Z,26.37
2019-05-21T12:45:09.615Z,25.80
2019-05-21T12:47:38.289Z,29.83
2019-05-21T12:50:07.778Z,31.90
2019-05-21T12:52:36.446Z,22.83
2019-05-21T12:55:08.939Z,26.80
2019-05-21T12:57:37.480Z,26.67
2019-05-21T13:00:10.474Z,23.20
2019-05-21T13:02:39.006Z,23.87
2019-05-21T13:05:11.381Z,23.17
2019-05-21T13:07:38.283Z,16.60
2019-05-21T13:10:07.867Z,17.37
2019-05-21T13:12:36.327Z,19.30
2019-05-21T13:15:06.911Z,18.00
2019-05-21T13:17:35.617Z,18.77
2019-05-21T13:20:07.665Z,17.00
2019-05-21T13:22:36.621Z,23.10
2019-05-21T13:25:06.758Z,19.90
2019-05-21T13:27:35.251Z,21.10
2019-05-21T13:30:08.057Z,26.10
2019-05-21T13:32:36.583Z,16.40
2019-05-21T13:35:09.541Z,11.60
2019-05-21T13:37:38.743Z,11.03
2019-05-21T13:40:11.846Z,8.60
2019-05-21T13:42:40.395Z,13.37
2019-05-21T13:45:09.396Z,9.77
2019-05-21T13:47:38.063Z,15.13
2019-05-21T13:50:10.603Z,12.20
2019-05-21T13:52:39.149Z,13.00
2019-05-21T13:55:08.573Z,16.43
2019-05-21T13:57:37.157Z,13.63
2019-05-21T14:00:10.847Z,10.27
2019-05-21T14:02:39.732Z,10.53
2019-05-21T14:05:08.833Z,11.40
2019-05-21T14:07:37.559Z,15.20
2019-05-21T14:10:16.308Z,14.07
2019-05-21T14:12:38.310Z,13.53
2019-05-21T14:15:08.070Z,9.07
2019-05-21T14:17:39.034Z,8.07
2019-05-21T14:20:08.844Z,9.43
2019-05-21T14:22:37.386Z,8.83
2019-05-21T14:25:07.032Z,10.67
2019-05-21T14:27:44.530Z,11.23
2019-05-21T14:30:10.103Z,11.27
2019-05-21T14:32:38.789Z,12.47
2019-05-21T14:35:07.788Z,9.53
2019-05-21T14:37:36.267Z,11.20
2019-05-21T14:40:10.165Z,13.17
2019-05-21T14:42:39.138Z,6.90
2019-05-21T14:45:08.293Z,10.70
2019-05-21T14:47:37.025Z,8.90
2019-05-21T14:50:08.069Z,9.30
2019-05-21T14:52:36.699Z,12.17
2019-05-21T14:55:08.422Z,10.67
2019-05-21T14:57:37.105Z,11.70
2019-05-21T15:00:09.021Z,7.90
2019-05-21T15:02:37.577Z,8.17
2019-05-21T15:05:07.196Z,7.20
2019-05-21T15:07:35.706Z,7.93
2019-05-21T15:10:06.188Z,8.13
2019-05-21T15:12:34.766Z,7.23
2019-05-21T15:15:05.765Z,15.13
2019-05-21T15:17:34.335Z,16.80
2019-05-21T15:20:05.508Z,17.17
2019-05-21T15:22:34.432Z,8.37
2019-05-21T15:25:03.086Z,8.47
2019-05-21T15:27:31.899Z,8.77
2019-05-21T15:30:00.425Z,7.00
2019-05-21T15:32:30.732Z,9.37
2019-05-21T15:34:59.368Z,9.17
2019-05-21T15:37:27.881Z,9.13
2019-05-21T15:39:56.588Z,9.77
2019-05-21T15:42:25.202Z,11.17
2019-05-21T15:44:53.662Z,8.00
2019-05-21T15:47:22.170Z,7.97
2019-05-21T15:49:50.717Z,8.67
2019-05-21T15:52:19.177Z,15.17
2019-05-21T15:54:47.700Z,15.03
2019-05-21T15:57:16.164Z,9.17
2019-05-21T15:59:44.776Z,9.33
2019-05-21T16:02:13.290Z,10.97
2019-05-21T16:04:41.836Z,14.03
2019-05-21T16:07:10.379Z,7.83
2019-05-21T16:09:38.955Z,9.93
2019-05-21T16:12:07.492Z,13.07
2019-05-21T16:14:36.111Z,8.97
2019-05-21T16:17:04.815Z,9.23
2019-05-21T16:19:33.362Z,11.30
2019-05-21T16:22:02.132Z,6.00
2019-05-21T16:24:30.702Z,5.83
2019-05-21T16:26:59.423Z,8.23
2019-05-21T16:29:27.983Z,3.27
2019-05-21T16:31:56.492Z,9.43
2019-05-21T16:34:25.035Z,7.17
2019-05-21T16:36:53.565Z,7.13
2019-05-21T16:39:23.427Z,8.50
2019-05-21T16:41:52.027Z,6.67
2019-05-21T16:44:20.548Z,5.43
2019-05-21T16:46:49.050Z,3.03
2019-05-21T16:49:17.778Z,6.13
2019-05-21T16:51:46.263Z,6.27
2019-05-21T16:54:14.829Z,4.27
2019-05-21T16:56:43.359Z,11.60
2019-05-21T16:59:11.912Z,6.00
2019-05-21T17:01:40.506Z,6.30
2019-05-21T17:04:09.114Z,6.57
2019-05-21T17:06:37.719Z,3.50
2019-05-21T17:09:09.609Z,4.50
2019-05-21T17:11:38.073Z,4.90
2019-05-21T17:14:06.613Z,4.30
2019-05-21T17:16:35.169Z,3.37
2019-05-21T17:19:03.851Z,1.77
2019-05-21T17:21:32.403Z,1.07
2019-05-21T17:24:01.150Z,4.40
2019-05-21T17:26:29.779Z,6.07
2019-05-21T17:28:58.296Z,7.87
2019-05-21T17:31:26.811Z,3.33
2019-05-21T17:33:55.347Z,2.73
2019-05-21T17:36:23.956Z,4.27
2019-05-21T17:38:52.557Z,3.20
2019-05-21T17:41:21.146Z,3.80
2019-05-21T17:43:50.281Z,5.33
2019-05-21T17:46:18.926Z,4.00
2019-05-21T17:48:47.405Z,3.10
2019-05-21T17:51:15.943Z,6.00
2019-05-21T17:53:44.507Z,2.57
2019-05-21T17:56:13.523Z,3.30
2019-05-21T17:58:42.229Z,7.03
2019-05-21T18:01:13.729Z,3.93
2019-05-21T18:03:42.923Z,6.83
2019-05-21T18:06:14.012Z,5.27
2019-05-21T18:08:42.592Z,6.40
2019-05-21T18:11:12.166Z,4.50
2019-05-21T18:13:42.136Z,3.80
2019-05-21T18:16:11.647Z,4.93
2019-05-21T18:18:41.130Z,3.27
2019-05-21T18:21:10.979Z,3.20
2019-05-21T18:23:39.705Z,3.63
2019-05-21T18:26:08.905Z,4.53
2019-05-21T18:28:38.311Z,2.63
2019-05-21T18:31:07.533Z,3.10
2019-05-21T18:33:36.448Z,3.43
2019-05-21T18:36:07.694Z,3.57
2019-05-21T18:38:36.279Z,5.57
2019-05-21T18:41:05.372Z,4.07
2019-05-21T18:43:33.830Z,3.03
2019-05-21T18:46:02.585Z,8.97
2019-05-21T18:48:31.185Z,4.50
2019-05-21T18:50:59.996Z,4.23
2019-05-21T18:53:28.570Z,3.90
2019-05-21T18:55:57.113Z,6.33
2019-05-21T18:58:25.754Z,7.90
2019-05-21T19:00:54.437Z,2.47
2019-05-21T19:03:26.111Z,12.33
2019-05-21T19:05:53.155Z,3.87
2019-05-21T19:08:21.730Z,6.57
2019-05-21T19:10:50.261Z,3.00
2019-05-21T19:13:19.164Z,6.80
2019-05-21T19:15:47.893Z,2.43
2019-05-21T19:18:16.497Z,5.30
2019-05-21T19:20:45.331Z,3.10
2019-05-21T19:23:14.448Z,3.03
2019-05-21T19:25:43.121Z,6.77
2019-05-21T19:28:11.932Z,2.07
2019-05-21T19:30:40.933Z,4.60
2019-05-21T19:33:09.544Z,7.40
2019-05-21T19:35:38.150Z,20.07
2019-05-21T19:38:06.768Z,6.87
2019-05-21T19:40:35.303Z,5.23
2019-05-21T19:43:04.291Z,3.80
2019-05-21T19:45:32.915Z,8.13
2019-05-21T19:48:01.468Z,7.53
2019-05-21T19:50:36.035Z,6.67
2019-05-21T19:53:04.848Z,3.00
2019-05-21T19:55:35.114Z,2.47
2019-05-21T19:58:03.732Z,2.63
2019-05-21T20:00:33.213Z,2.37
2019-05-21T20:03:01.992Z,3.87
2019-05-21T20:05:31.057Z,1.83
2019-05-21T20:07:59.799Z,3.20
2019-05-21T20:10:28.501Z,5.67
2019-05-21T20:12:57.045Z,2.40
2019-05-21T20:15:25.608Z,2.40
2019-05-21T20:18:06.493Z,2.97
2019-05-21T20:20:27.490Z,6.13
2019-05-21T20:22:57.901Z,2.90
2019-05-21T20:25:28.315Z,8.07
2019-05-21T20:27:57.429Z,3.90
2019-05-21T20:30:28.151Z,3.30
2019-05-21T20:32:57.695Z,2.77
2019-05-21T20:35:27.891Z,5.47
2019-05-21T20:37:56.473Z,3.70
2019-05-21T20:40:25.385Z,6.03
2019-05-21T20:42:54.764Z,5.90
2019-05-21T20:45:25.114Z,6.07
2019-05-21T20:47:53.917Z,7.43
2019-05-21T20:50:22.861Z,5.67
2019-05-21T20:52:51.526Z,3.53
2019-05-21T20:55:20.687Z,3.53
2019-05-21T20:57:49.207Z,2.57
2019-05-21T21:00:23.084Z,3.67
2019-05-21T21:02:52.905Z,5.03
2019-05-21T21:05:21.627Z,3.67
2019-05-21T21:07:51.200Z,4.70
2019-05-21T21:10:20.762Z,6.67
2019-05-21T21:12:49.760Z,7.93
2019-05-21T21:15:19.319Z,3.90
2019-05-21T21:17:48.300Z,6.10
2019-05-21T21:20:16.835Z,5.60
2019-05-21T21:22:45.772Z,5.17
2019-05-21T21:25:21.369Z,4.67
2019-05-21T21:27:49.900Z,4.03
2019-05-21T21:30:18.782Z,5.17
2019-05-21T21:32:47.911Z,5.27
2019-05-21T21:35:17.527Z,5.00
2019-05-21T21:37:46.452Z,6.13
2019-05-21T21:40:16.620Z,5.73
2019-05-21T21:42:45.828Z,4.03
2019-05-21T21:45:15.035Z,4.80
2019-05-21T21:47:43.626Z,6.77
2019-05-21T21:50:13.106Z,5.83
2019-05-21T21:52:42.662Z,3.20
2019-05-21T21:55:12.201Z,6.17
2019-05-21T21:57:40.803Z,3.37
2019-05-21T22:00:30.436Z,4.00
2019-05-21T22:03:01.994Z,3.57
2019-05-21T22:05:31.892Z,2.93
2019-05-21T22:08:00.873Z,4.73
2019-05-21T22:10:30.152Z,3.50
2019-05-21T22:12:58.694Z,5.23
2019-05-21T22:15:27.793Z,6.27
2019-05-21T22:17:56.859Z,4.80
2019-05-21T22:20:26.445Z,4.37
2019-05-21T22:22:55.954Z,7.30
2019-05-21T22:25:24.989Z,3.87
2019-05-21T22:27:53.586Z,3.33
2019-05-21T22:30:22.487Z,5.33
2019-05-21T22:32:52.044Z,6.17
2019-05-21T22:35:20.719Z,3.67
2019-05-21T22:37:49.377Z,4.20
2019-05-21T22:40:18.441Z,7.07
2019-05-21T22:42:47.390Z,3.77
2019-05-21T22:45:16.561Z,3.67
2019-05-21T22:47:45.019Z,7.67
2019-05-21T22:50:14.725Z,7.53
2019-05-21T22:52:43.348Z,2.83
2019-05-21T22:55:11.874Z,3.57
2019-05-21T22:57:40.479Z,5.53
2019-05-21T23:00:09.865Z,4.73
2019-05-21T23:02:39.787Z,4.53
2019-05-21T23:05:08.581Z,6.10
2019-05-21T23:07:37.222Z,5.50
2019-05-21T23:10:08.303Z,4.57
2019-05-21T23:12:36.983Z,5.00
2019-05-21T23:15:23.948Z,8.33
2019-05-21T23:17:38.779Z,5.87
2019-05-21T23:20:10.855Z,8.83
2019-05-21T23:22:40.408Z,4.17
2019-05-21T23:25:12.355Z,5.53
2019-05-21T23:27:42.595Z,3.67
2019-05-21T23:30:13.014Z,3.77
2019-05-21T23:32:42.028Z,4.80
2019-05-21T23:35:11.969Z,4.97
2019-05-21T23:37:42.457Z,5.17
2019-05-21T23:40:13.353Z,3.50
2019-05-21T23:42:42.915Z,5.03
2019-05-21T23:45:12.945Z,4.13
2019-05-21T23:47:43.810Z,4.00
2019-05-21T23:50:15.210Z,5.17
2019-05-21T23:52:44.690Z,5.43
2019-05-21T23:55:14.630Z,7.40
2019-05-21T23:57:44.148Z,6.77
